Time;durP1;ratioP1;P1;durP2;ratioP2;P2;SDS_P1;SDS_P2;PMS_P1;PMS_P2;Temp;Humidity;BMP_temperature;BMP_pressure;BME280_temperature;BME280_humidity;BME280_pressure;Samples;Min_cycle;Max_cycle;Signal;HPM_P1;HPM_P2
2023/09/08 00:01:00;;;;;;;6.40;3.60;;;;;;;17.88;97.23;101145.13;5197484;28;20044;-72
2023/09/08 00:03:30;;;;;;;9.45;3.97;;;;;;;17.82;98.48;101141.03;5195945;28;20398;-73
2023/09/08 00:06:01;;;;;;;6.73;3.50;;;;;;;17.84;99.84;101151.53;5197909;28;20029;-72
2023/09/08 00:08:31;;;;;;;12.60;3.95;;;;;;;17.88;98.97;101143.34;5196643;28;20319;-72
2023/09/08 00:11:01;;;;;;;6.82;3.65;;;;;;;17.95;99.39;101149.13;5197161;28;20092;-71
2023/09/08 00:13:31;;;;;;;7.63;3.80;;;;;;;18.02;98.15;101139.91;5197065;28;20221;-72
2023/09/08 00:16:02;;;;;;;9.60;3.88;;;;;;;18.05;98.43;101150.31;5197669;28;20041;-72
2023/09/08 00:18:33;;;;;;;8.95;3.65;;;;;;;18.08;98.42;101143.06;5196062;28;20429;-72
2023/09/08 00:21:03;;;;;;;7.68;3.78;;;;;;;18.03;98.58;101141.63;5196066;28;20040;-72
2023/09/08 00:23:33;;;;;;;7.28;3.63;;;;;;;17.89;95.21;101149.47;5196293;28;20486;-72
2023/09/08 00:26:04;;;;;;;6.32;3.80;;;;;;;17.45;98.84;101151.09;5197343;28;20030;-73
2023/09/08 00:28:34;;;;;;;8.18;3.55;;;;;;;17.28;100.00;101151.13;5194243;28;20030;-73
2023/09/08 00:31:04;;;;;;;8.60;3.53;;;;;;;17.20;100.00;101158.59;5195645;28;20040;-73
2023/09/08 00:33:35;;;;;;;9.98;4.00;;;;;;;17.13;100.00;101144.00;5194768;28;20094;-73
2023/09/08 00:36:05;;;;;;;9.23;4.25;;;;;;;17.07;100.00;101149.59;5196200;28;20033;-72
2023/09/08 00:38:36;;;;;;;6.03;3.38;;;;;;;16.97;100.00;101151.03;5192045;28;20482;-73
2023/09/08 00:41:06;;;;;;;8.35;4.07;;;;;;;17.02;99.74;101154.28;5218071;22;20131;-72
2023/09/08 00:43:36;;;;;;;6.57;3.45;;;;;;;17.03;99.77;101151.56;5177808;28;20471;-71
2023/09/08 00:46:08;;;;;;;6.78;3.45;;;;;;;16.96;100.00;101154.63;5170113;28;20037;-72
2023/09/08 00:48:39;;;;;;;9.48;4.00;;;;;;;16.95;100.00;101152.91;5194535;28;20084;-72
2023/09/08 00:51:09;;;;;;;8.88;4.18;;;;;;;16.82;100.00;101151.84;5196650;28;20025;-72
2023/09/08 00:53:40;;;;;;;8.02;4.25;;;;;;;16.83;100.00;101142.97;5195807;28;20529;-72
2023/09/08 00:56:11;;;;;;;7.20;4.32;;;;;;;16.79;100.00;101139.63;5197501;28;20034;-72
2023/09/08 00:58:41;;;;;;;6.50;3.88;;;;;;;16.96;100.00;101146.69;5196123;28;20026;-72
2023/09/08 01:01:12;;;;;;;9.27;4.28;;;;;;;16.87;100.00;101148.03;5179127;28;20509;-72
2023/09/08 01:03:43;;;;;;;6.30;3.70;;;;;;;16.79;100.00;101146.72;5195859;28;20113;-71
2023/09/08 01:06:13;;;;;;;7.80;4.13;;;;;;;16.84;100.00;101142.03;5178848;28;20501;-72
2023/09/08 01:08:44;;;;;;;6.18;3.85;;;;;;;17.01;100.00;101142.00;5177918;28;20520;-72
2023/09/08 01:11:15;;;;;;;7.63;3.78;;;;;;;16.92;100.00;101143.34;5196349;28;20037;-72
2023/09/08 01:13:46;;;;;;;8.55;3.90;;;;;;;16.70;100.00;101139.25;5177592;28;20482;-72
2023/09/08 01:16:16;;;;;;;9.13;4.13;;;;;;;16.54;100.00;101140.97;5199855;28;20033;-72
2023/09/08 01:18:48;;;;;;;9.90;4.07;;;;;;;16.54;100.00;101134.88;5199416;28;20064;-72
2023/09/08 01:21:48;;;;;;;6.75;3.97;;;;;;;16.54;100.00;101140.97;5186933;28;20233;-72
2023/09/08 01:24:37;;;;;;;8.10;4.40;;;;;;;16.65;100.00;101137.78;5205831;28;20115;-72
2023/09/08 01:27:12;;;;;;;9.35;4.35;;;;;;;16.73;100.00;101136.47;5183264;28;20090;-72
2023/09/08 01:29:45;;;;;;;7.20;3.92;;;;;;;16.84;100.00;101137.59;5202415;28;20044;-72
2023/09/08 01:32:16;;;;;;;7.65;3.75;;;;;;;16.88;100.00;101131.25;5205050;28;20228;-72
2023/09/08 01:34:47;;;;;;;8.90;4.20;;;;;;;16.93;100.00;101133.63;5205678;28;20094;-71
2023/09/08 01:37:17;;;;;;;7.80;3.97;;;;;;;17.02;100.00;101130.50;5206738;28;20021;-71
2023/09/08 01:39:47;;;;;;;8.80;3.95;;;;;;;17.02;100.00;101127.88;5200846;28;20496;-72
2023/09/08 01:42:17;;;;;;;6.75;3.80;;;;;;;16.98;100.00;101132.44;5205586;28;20121;-71
2023/09/08 01:44:48;;;;;;;11.07;4.53;;;;;;;16.86;100.00;101133.13;5186787;28;20025;-71
2023/09/08 01:47:18;;;;;;;6.82;4.25;;;;;;;16.82;100.00;101133.34;5188553;28;20620;-72
2023/09/08 01:49:49;;;;;;;7.75;4.10;;;;;;;16.79;100.00;101130.88;5185567;28;20465;-71
2023/09/08 01:52:19;;;;;;;7.65;4.40;;;;;;;16.72;100.00;101129.47;5203596;28;20025;-72
2023/09/08 01:54:49;;;;;;;6.22;4.00;;;;;;;16.62;100.00;101125.63;5204984;28;20049;-71
2023/09/08 01:57:20;;;;;;;7.00;4.00;;;;;;;16.48;100.00;101127.22;5202121;28;20048;-72
2023/09/08 01:59:50;;;;;;;8.10;4.63;;;;;;;16.50;100.00;101120.09;5199837;28;20426;-72
2023/09/08 02:02:20;;;;;;;7.68;4.55;;;;;;;16.54;100.00;101116.38;5206232;28;20026;-72
2023/09/08 02:04:50;;;;;;;8.80;4.20;;;;;;;16.62;100.00;101111.56;5181373;28;20029;-72
2023/09/08 02:07:21;;;;;;;8.57;4.68;;;;;;;16.59;100.00;101115.19;5202784;28;20409;-72
2023/09/08 02:09:51;;;;;;;7.30;4.57;;;;;;;16.60;100.00;101111.66;5184409;28;20033;-70
2023/09/08 02:12:21;;;;;;;7.63;4.97;;;;;;;16.49;100.00;101110.47;5205758;28;20073;-72
2023/09/08 02:14:52;;;;;;;7.80;4.55;;;;;;;16.53;100.00;101114.69;5201744;28;20030;-72
2023/09/08 02:17:22;;;;;;;8.25;4.65;;;;;;;16.59;100.00;101109.91;5199531;28;20540;-72
2023/09/08 02:19:52;;;;;;;9.38;4.75;;;;;;;16.66;100.00;101103.41;5182603;28;20075;-69
2023/09/08 02:22:23;;;;;;;7.50;4.57;;;;;;;16.75;100.00;101102.91;5204242;28;20303;-72
2023/09/08 02:24:53;;;;;;;8.02;5.00;;;;;;;16.72;100.00;101096.97;5187282;28;20029;-72
2023/09/08 02:27:23;;;;;;;9.38;4.75;;;;;;;16.70;100.00;101102.31;5181196;28;20060;-72
2023/09/08 02:29:54;;;;;;;8.38;4.63;;;;;;;16.66;100.00;101095.50;5202863;28;20542;-72
2023/09/08 02:32:24;;;;;;;8.82;5.10;;;;;;;16.60;100.00;101101.09;5200949;28;20029;-72
2023/09/08 02:34:55;;;;;;;9.43;4.70;;;;;;;16.67;100.00;101101.59;5201273;28;20025;-72
2023/09/08 02:37:25;;;;;;;8.63;4.72;;;;;;;16.63;100.00;101097.41;5202004;28;20703;-72
2023/09/08 02:39:55;;;;;;;8.48;4.93;;;;;;;16.55;100.00;101100.44;5199867;28;20033;-72
2023/09/08 02:42:26;;;;;;;9.43;4.70;;;;;;;16.41;100.00;101108.22;5200686;28;20102;-71
2023/09/08 02:44:56;;;;;;;9.65;4.53;;;;;;;16.51;100.00;101098.03;5199056;28;20390;-72
2023/09/08 02:47:26;;;;;;;8.82;5.38;;;;;;;16.40;100.00;101093.31;5203237;28;20029;-71
2023/09/08 02:49:57;;;;;;;12.70;4.88;;;;;;;16.58;100.00;101091.53;5199141;28;20514;-72
2023/09/08 02:52:27;;;;;;;9.70;5.30;;;;;;;16.72;100.00;101091.69;5201421;28;20017;-72
2023/09/08 02:54:57;;;;;;;11.07;5.50;;;;;;;16.73;100.00;101080.19;5183048;28;20525;-72
2023/09/08 02:57:28;;;;;;;8.18;5.13;;;;;;;16.71;100.00;101089.97;5200053;28;20036;-70
2023/09/08 02:59:58;;;;;;;9.55;5.20;;;;;;;16.60;100.00;101093.19;5201694;28;20033;-71
2023/09/08 03:02:30;;;;;;;10.82;5.15;;;;;;;16.61;100.00;101081.69;5200126;28;20025;-70
2023/09/08 03:05:01;;;;;;;8.40;4.70;;;;;;;16.70;100.00;101086.47;5200948;28;20438;-70
2023/09/08 03:07:33;;;;;;;8.60;4.88;;;;;;;16.60;100.00;101082.63;5201526;28;20022;-71
2023/09/08 03:10:04;;;;;;;10.82;5.03;;;;;;;16.58;100.00;101081.81;5204028;28;20025;-71
2023/09/08 03:12:34;;;;;;;8.02;5.07;;;;;;;16.60;100.00;101079.97;5184462;28;20040;-72
2023/09/08 03:15:05;;;;;;;9.45;5.10;;;;;;;16.61;100.00;101078.19;5200446;28;20458;-71
2023/09/08 03:17:36;;;;;;;8.85;5.45;;;;;;;16.52;100.00;101079.50;5196956;28;20017;-72
2023/09/08 03:20:09;;;;;;;9.20;5.60;;;;;;;16.65;100.00;101085.00;5181169;28;21213;-72
2023/09/08 03:22:40;;;;;;;14.02;6.85;;;;;;;16.52;100.00;101082.16;5181783;28;20163;-72
2023/09/08 03:25:10;;;;;;;10.13;5.47;;;;;;;16.41;100.00;101076.56;5182245;28;20104;-72
2023/09/08 03:27:40;;;;;;;7.43;4.50;;;;;;;16.50;100.00;101070.81;5183728;28;20034;-71
2023/09/08 03:30:11;;;;;;;8.18;4.70;;;;;;;16.38;100.00;101079.34;5181254;28;20031;-71
2023/09/08 03:32:41;;;;;;;11.07;5.57;;;;;;;16.26;100.00;101079.97;5197167;28;20036;-72
2023/09/08 03:35:12;;;;;;;9.45;5.60;;;;;;;16.18;100.00;101079.47;5199208;28;20020;-72
2023/09/08 03:37:42;;;;;;;8.95;5.20;;;;;;;16.18;100.00;101071.56;5197618;28;20022;-71
2023/09/08 03:40:13;;;;;;;10.18;6.03;;;;;;;16.18;100.00;101076.84;5197647;28;20514;-71
2023/09/08 03:42:43;;;;;;;11.70;5.28;;;;;;;16.06;100.00;101080.09;5196925;28;20057;-71
2023/09/08 03:45:13;;;;;;;9.43;5.78;;;;;;;15.95;100.00;101074.53;5197693;28;20018;-71
2023/09/08 03:47:44;;;;;;;11.05;5.22;;;;;;;15.93;100.00;101078.16;5197469;28;20490;-71
2023/09/08 03:50:14;;;;;;;10.60;6.00;;;;;;;16.00;100.00;101079.53;5197039;28;20548;-71
2023/09/08 03:52:44;;;;;;;9.98;6.00;;;;;;;15.98;100.00;101079.63;5197040;28;20104;-71
2023/09/08 03:55:15;;;;;;;10.25;6.18;;;;;;;15.89;100.00;101077.44;5196919;28;20508;-71
2023/09/08 03:57:45;;;;;;;11.15;5.78;;;;;;;15.86;100.00;101088.13;5197868;28;20227;-71
2023/09/08 04:00:22;;;;;;;9.57;5.60;;;;;;;15.82;100.00;101081.31;5197557;28;20020;-71
2023/09/08 04:02:52;;;;;;;10.73;5.78;;;;;;;15.94;100.00;101079.84;5195803;28;20017;-69
2023/09/08 04:05:22;;;;;;;13.10;6.53;;;;;;;15.86;100.00;101077.59;5197156;28;20043;-71
2023/09/08 04:07:53;;;;;;;11.48;6.10;;;;;;;15.84;100.00;101076.81;5196193;28;20112;-70
2023/09/08 04:10:23;;;;;;;10.48;6.32;;;;;;;15.74;100.00;101072.91;5197340;28;20544;-73
2023/09/08 04:12:54;;;;;;;9.05;5.53;;;;;;;15.67;100.00;101068.03;5198949;28;20029;-71
2023/09/08 04:15:24;;;;;;;10.23;5.90;;;;;;;15.68;100.00;101075.84;5200508;28;20486;-72
2023/09/08 04:17:55;;;;;;;11.05;6.00;;;;;;;15.63;100.00;101077.88;5178620;28;20030;-71
2023/09/08 04:20:25;;;;;;;13.57;5.47;;;;;;;15.62;100.00;101075.28;5195860;28;20404;-72
2023/09/08 04:22:56;;;;;;;9.60;6.03;;;;;;;15.64;100.00;101073.44;5196354;28;20025;-71
2023/09/08 04:25:26;;;;;;;11.00;5.63;;;;;;;15.66;100.00;101069.81;5179661;28;20022;-71
2023/09/08 04:27:56;;;;;;;9.07;5.35;;;;;;;15.58;100.00;101071.09;5193536;28;20544;-71
2023/09/08 04:30:27;;;;;;;10.93;5.72;;;;;;;15.51;100.00;101074.97;5179687;28;20029;-71
2023/09/08 04:32:58;;;;;;;11.68;6.45;;;;;;;15.54;100.00;101073.03;5196537;28;20108;-72
2023/09/08 04:35:28;;;;;;;11.45;6.20;;;;;;;15.58;100.00;101065.84;5179654;28;20022;-70
2023/09/08 04:37:58;;;;;;;9.57;5.65;;;;;;;15.50;100.00;101073.25;5197035;28;20029;-72
2023/09/08 04:40:29;;;;;;;11.07;5.35;;;;;;;15.51;100.00;101065.28;5196349;28;20098;-70
2023/09/08 04:42:59;;;;;;;8.82;5.47;;;;;;;15.55;100.00;101063.34;5196964;28;20047;-72
2023/09/08 04:45:30;;;;;;;10.40;5.90;;;;;;;15.60;100.00;101064.84;5199437;28;20026;-71
2023/09/08 04:48:00;;;;;;;10.40;6.00;;;;;;;15.62;100.00;101067.38;5197682;28;20029;-72
2023/09/08 04:50:31;;;;;;;14.73;6.10;;;;;;;15.64;100.00;101073.44;5161026;28;20619;-71
2023/09/08 04:53:01;;;;;;;11.48;6.68;;;;;;;15.61;100.00;101074.44;5195672;28;20033;-72
2023/09/08 04:55:31;;;;;;;7.97;5.40;;;;;;;15.58;100.00;101071.09;5179049;28;20021;-72
2023/09/08 04:58:02;;;;;;;10.05;5.95;;;;;;;15.57;100.00;101070.22;5196342;28;20498;-70
2023/09/08 05:00:33;;;;;;;11.52;6.15;;;;;;;15.55;100.00;101071.25;5196041;28;20025;-71
2023/09/08 05:03:04;;;;;;;9.00;5.55;;;;;;;15.40;100.00;101072.81;5196021;28;20394;-72
2023/09/08 05:05:34;;;;;;;8.63;5.60;;;;;;;15.45;100.00;101077.88;5198516;28;20045;-71
2023/09/08 05:08:05;;;;;;;8.60;5.47;;;;;;;15.59;100.00;101078.06;5178990;28;20030;-72
2023/09/08 05:10:35;;;;;;;10.25;6.35;;;;;;;15.80;100.00;101079.66;5177990;28;20497;-71
2023/09/08 05:13:05;;;;;;;10.25;6.32;;;;;;;15.85;100.00;101081.16;5183566;28;20037;-72
2023/09/08 05:15:36;;;;;;;10.48;5.97;;;;;;;15.87;100.00;101084.56;5178382;28;20021;-72
2023/09/08 05:18:06;;;;;;;11.02;5.90;;;;;;;16.02;100.00;101082.97;5195716;28;20022;-72
2023/09/08 05:20:36;;;;;;;9.25;6.13;;;;;;;15.94;100.00;101086.00;5194709;28;20055;-72
2023/09/08 05:23:07;;;;;;;11.40;6.00;;;;;;;15.95;100.00;101085.06;5196572;28;20062;-72
2023/09/08 05:25:37;;;;;;;10.10;5.32;;;;;;;16.07;100.00;101076.53;5195133;28;20056;-71
2023/09/08 05:28:07;;;;;;;8.32;5.57;;;;;;;16.01;100.00;101074.19;5177303;28;20025;-72
2023/09/08 05:30:38;;;;;;;13.10;5.95;;;;;;;15.96;100.00;101073.59;5195152;28;20171;-72
2023/09/08 05:33:08;;;;;;;12.57;6.03;;;;;;;16.05;100.00;101078.38;5195656;28;20029;-72
2023/09/08 05:35:38;;;;;;;9.73;5.85;;;;;;;16.11;100.00;101069.31;5196155;28;20517;-72
2023/09/08 05:38:09;;;;;;;9.50;5.93;;;;;;;16.19;100.00;101073.28;5196638;28;20025;-72
2023/09/08 05:40:39;;;;;;;9.80;5.90;;;;;;;16.34;100.00;101074.28;5178257;28;20021;-72
2023/09/08 05:43:09;;;;;;;10.70;6.35;;;;;;;16.42;100.00;101080.06;5196854;28;20037;-72
2023/09/08 05:45:40;;;;;;;17.33;6.38;;;;;;;16.47;100.00;101073.63;5192752;28;20022;-72
2023/09/08 05:48:10;;;;;;;10.23;6.13;;;;;;;16.58;100.00;101073.06;5195633;28;20034;-70
2023/09/08 05:50:40;;;;;;;10.70;6.00;;;;;;;16.66;100.00;101076.13;5196059;28;20096;-72
2023/09/08 05:53:11;;;;;;;11.23;6.28;;;;;;;16.82;100.00;101072.63;5178173;28;20040;-71
2023/09/08 05:55:41;;;;;;;11.32;6.38;;;;;;;16.86;100.00;101076.81;5194555;28;20318;-71
2023/09/08 05:58:11;;;;;;;9.88;6.05;;;;;;;16.94;100.00;101069.34;5195949;28;20055;-71
2023/09/08 06:00:42;;;;;;;10.30;6.38;;;;;;;16.88;100.00;101081.09;5194685;28;20021;-72
2023/09/08 06:03:12;;;;;;;10.93;5.72;;;;;;;17.11;100.00;101074.56;5198948;28;20052;-72
2023/09/08 06:05:42;;;;;;;10.57;6.43;;;;;;;17.28;100.00;101074.50;5181614;28;20022;-72
2023/09/08 06:08:13;;;;;;;9.40;6.38;;;;;;;17.33;100.00;101070.63;5199435;28;20035;-71
2023/09/08 06:10:43;;;;;;;11.50;6.15;;;;;;;17.38;100.00;101073.06;5200821;28;20429;-72
2023/09/08 06:13:13;;;;;;;10.00;5.82;;;;;;;17.52;100.00;101066.06;5202563;28;20095;-72
2023/09/08 06:15:44;;;;;;;10.57;5.85;;;;;;;17.61;100.00;101075.28;5199650;28;20033;-72
2023/09/08 06:18:14;;;;;;;9.15;5.63;;;;;;;17.77;100.00;101073.47;5182011;28;20465;-72
2023/09/08 06:20:45;;;;;;;13.23;6.45;;;;;;;17.81;100.00;101073.22;5197786;28;20029;-72
2023/09/08 06:23:19;;;;;;;10.38;6.50;;;;;;;18.07;100.00;101066.41;5199825;28;20506;-71
2023/09/08 06:25:50;;;;;;;8.20;5.32;;;;;;;18.15;100.00;101067.69;5199649;28;20028;-72
2023/09/08 06:28:20;;;;;;;8.05;5.07;;;;;;;18.26;100.00;101059.97;5178362;28;20025;-72
2023/09/08 06:30:50;;;;;;;8.98;5.18;;;;;;;18.41;100.00;101066.16;5180986;28;20022;-71
2023/09/08 06:33:22;;;;;;;9.70;5.53;;;;;;;18.56;100.00;101073.19;5187496;28;20583;-72
2023/09/08 06:35:53;;;;;;;8.93;5.80;;;;;;;18.64;100.00;101065.63;5181338;28;20515;-72
2023/09/08 06:38:23;;;;;;;8.52;5.18;;;;;;;18.76;100.00;101066.59;5199415;28;20057;-72
2023/09/08 06:40:54;;;;;;;8.82;5.63;;;;;;;19.04;100.00;101069.25;5219314;23;20076;-74
2023/09/08 06:43:24;;;;;;;13.10;5.32;;;;;;;19.22;100.00;101069.91;5198081;28;20029;-74
2023/09/08 06:45:54;;;;;;;9.30;5.70;;;;;;;19.28;100.00;101069.53;5179905;28;20033;-75
2023/09/08 06:48:25;;;;;;;10.52;5.85;;;;;;;19.34;100.00;101070.00;5198993;28;20084;-74
2023/09/08 06:50:56;;;;;;;14.80;5.68;;;;;;;19.52;100.00;101063.53;5204487;28;20047;-74
2023/09/08 06:53:26;;;;;;;8.52;6.03;;;;;;;19.59;100.00;101070.13;5201312;28;20025;-74
2023/09/08 06:55:56;;;;;;;11.00;5.47;;;;;;;20.58;100.00;101065.19;5219128;28;20308;-74
2023/09/08 06:58:27;;;;;;;8.60;4.53;;;;;;;23.44;89.90;101066.47;5219079;28;20060;-73
2023/09/08 07:00:57;;;;;;;7.43;3.97;;;;;;;25.56;76.95;101054.31;5218788;28;20381;-75
2023/09/08 07:03:27;;;;;;;7.55;4.55;;;;;;;26.78;70.90;101050.78;5219207;28;20672;-73
2023/09/08 07:05:58;;;;;;;7.45;4.05;;;;;;;27.71;68.42;101056.84;5219340;28;20037;-75
2023/09/08 07:08:28;;;;;;;7.68;3.65;;;;;;;28.81;64.05;101058.88;5217937;28;20143;-73
2023/09/08 07:10:58;;;;;;;5.83;3.80;;;;;;;29.08;63.52;101058.72;5225822;28;20047;-75
2023/09/08 07:13:29;;;;;;;7.60;3.87;;;;;;;30.15;61.69;101050.66;5227566;28;21014;-73
2023/09/08 07:15:59;;;;;;;6.87;3.97;;;;;;;28.81;63.09;101066.09;5224394;28;20032;-75
2023/09/08 07:18:32;;;;;;;6.32;3.90;;;;;;;29.56;62.69;101060.81;5216862;28;20352;-73
2023/09/08 07:21:02;;;;;;;8.70;3.25;;;;;;;30.96;59.71;101052.25;5216124;28;20041;-74
2023/09/08 07:23:35;;;;;;;6.97;3.60;;;;;;;30.43;60.62;101065.47;5220572;28;20032;-75
2023/09/08 07:26:05;;;;;;;5.80;3.20;;;;;;;30.66;60.23;101068.38;5220419;28;20061;-74
2023/09/08 07:28:36;;;;;;;4.55;3.28;;;;;;;30.60;61.71;101066.38;5223609;28;20596;-75
2023/09/08 07:31:08;;;;;;;5.25;3.55;;;;;;;31.64;58.87;101062.31;5219436;28;20028;-74
2023/09/08 07:33:39;;;;;;;8.85;3.38;;;;;;;32.21;58.47;101069.09;5219206;28;20032;-75
2023/09/08 07:36:10;;;;;;;5.47;3.73;;;;;;;31.16;59.88;101067.94;5218793;28;20024;-75
2023/09/08 07:38:40;;;;;;;6.25;3.03;;;;;;;32.40;58.53;101067.75;5196999;28;20307;-75
2023/09/08 07:41:11;;;;;;;5.88;3.60;;;;;;;30.91;61.82;101060.06;5218133;28;20162;-73
2023/09/08 07:43:44;;;;;;;7.97;3.63;;;;;;;32.47;58.54;101053.31;5217913;28;20086;-73
2023/09/08 07:46:14;;;;;;;5.68;3.28;;;;;;;33.29;56.55;101055.84;5218416;28;20025;-73
2023/09/08 07:48:45;;;;;;;6.40;3.00;;;;;;;30.57;61.94;101066.69;5218181;28;20037;-72
2023/09/08 07:51:15;;;;;;;4.50;3.13;;;;;;;31.54;58.99;101060.84;5217251;28;20044;-72
2023/09/08 07:53:45;;;;;;;5.27;3.00;;;;;;;33.34;56.61;101059.66;5217644;28;20303;-72
2023/09/08 07:56:15;;;;;;;8.73;2.90;;;;;;;33.08;55.58;101050.31;5215210;28;20435;-74
2023/09/08 07:58:46;;;;;;;4.70;3.00;;;;;;;33.11;55.00;101055.38;5216161;28;20278;-74
2023/09/08 08:01:16;;;;;;;4.68;3.13;;;;;;;31.09;57.96;101048.03;5216480;28;20033;-74
2023/09/08 08:03:46;;;;;;;4.27;2.80;;;;;;;32.52;56.52;101048.19;5217020;28;21337;-75
2023/09/08 08:06:17;;;;;;;5.13;2.60;;;;;;;33.30;54.88;101036.66;5197927;28;20470;-74
2023/09/08 08:08:47;;;;;;;6.97;2.45;;;;;;;32.90;53.97;101049.00;5219791;28;20299;-74
2023/09/08 08:11:17;;;;;;;6.60;2.23;;;;;;;34.48;52.45;101038.81;5216990;28;20409;-74
2023/09/08 08:13:48;;;;;;;7.32;2.55;;;;;;;32.69;55.51;101040.78;5217650;28;20357;-75
2023/09/08 08:16:20;;;;;;;4.03;2.43;;;;;;;34.93;52.43;101030.16;5217536;28;20047;-75
2023/09/08 08:18:50;;;;;;;3.75;2.53;;;;;;;33.63;52.72;101031.66;5217565;28;20051;-75
2023/09/08 08:21:22;;;;;;;5.28;2.20;;;;;;;34.12;53.03;101028.03;5216852;28;20059;-74
2023/09/08 08:23:52;;;;;;;3.42;2.15;;;;;;;33.67;52.55;101030.25;5217002;28;20482;-73
2023/09/08 08:26:27;;;;;;;3.23;2.17;;;;;;;34.28;49.77;101029.66;5217570;28;20067;-73
2023/09/08 08:28:57;;;;;;;5.03;2.58;;;;;;;35.43;48.24;101027.94;5199322;28;20032;-71
2023/09/08 08:31:27;;;;;;;3.30;2.07;;;;;;;35.82;48.16;101031.63;5216438;28;20090;-70
2023/09/08 08:33:58;;;;;;;4.10;2.00;;;;;;;34.51;50.94;101027.56;5218613;28;20063;-72
2023/09/08 08:36:28;;;;;;;4.30;2.10;;;;;;;34.96;50.88;101029.75;5216663;28;20298;-70
2023/09/08 08:38:59;;;;;;;4.95;2.05;;;;;;;35.17;50.05;101027.81;5198864;28;20032;-73
2023/09/08 08:41:29;;;;;;;3.80;2.10;;;;;;;34.05;50.96;101027.13;5216241;28;20017;-71
2023/09/08 08:43:59;;;;;;;4.70;2.38;;;;;;;34.58;50.15;101028.44;5218062;28;20037;-74
2023/09/08 08:46:30;;;;;;;4.47;2.30;;;;;;;35.29;49.71;101026.22;5216141;28;20040;-74
2023/09/08 08:49:03;;;;;;;3.70;2.05;;;;;;;34.16;51.29;101032.03;5217983;28;20037;-75
2023/09/08 08:51:35;;;;;;;4.50;2.30;;;;;;;34.12;51.57;101033.44;5215744;28;20032;-74
2023/09/08 08:54:06;;;;;;;5.93;2.45;;;;;;;33.66;51.58;101031.28;5217679;28;20043;-74
2023/09/08 08:56:36;;;;;;;3.25;1.92;;;;;;;34.56;50.71;101028.66;5215071;28;20021;-74
2023/09/08 08:59:07;;;;;;;8.23;2.30;;;;;;;33.91;49.95;101027.19;5196678;28;20041;-73
2023/09/08 09:01:41;;;;;;;4.10;2.00;;;;;;;35.84;49.36;101015.97;5216226;28;20033;-75
2023/09/08 09:04:12;;;;;;;5.43;2.13;;;;;;;35.23;49.47;101010.69;5217698;28;20363;-75
2023/09/08 09:06:43;;;;;;;4.03;2.00;;;;;;;35.67;48.98;101011.09;5216936;28;20029;-74
2023/09/08 09:09:14;;;;;;;3.33;2.00;;;;;;;35.73;48.19;101010.25;5217682;28;20485;-71
2023/09/08 09:11:44;;;;;;;5.20;2.25;;;;;;;35.03;49.00;101007.84;5216968;28;20036;-72
2023/09/08 09:14:15;;;;;;;3.57;2.33;;;;;;;34.86;48.85;101011.09;5218690;28;20029;-70
2023/09/08 09:16:47;;;;;;;7.03;2.55;;;;;;;35.08;47.55;101005.38;5216441;28;20348;-72
2023/09/08 09:19:31;;;;;;;4.97;2.42;;;;;;;33.00;51.23;101017.88;5217105;28;20494;-74
2023/09/08 09:22:03;;;;;;;4.03;2.50;;;;;;;33.69;51.56;101009.19;5215892;28;20120;-74
2023/09/08 09:24:40;;;;;;;2.85;2.15;;;;;;;32.23;52.49;101012.06;5216235;28;20116;-74
2023/09/08 09:27:11;;;;;;;7.78;2.40;;;;;;;31.16;54.27;101005.78;5214470;28;20653;-73
2023/09/08 09:29:47;;;;;;;3.28;2.45;;;;;;;31.05;57.46;101008.84;5197224;28;20599;-73
2023/09/08 09:32:23;;;;;;;4.88;2.60;;;;;;;30.34;59.50;101017.09;5217657;28;20044;-72
2023/09/08 09:34:54;;;;;;;5.00;2.42;;;;;;;30.28;57.28;101013.22;5198132;28;20025;-73
2023/09/08 09:37:24;;;;;;;4.47;2.33;;;;;;;30.11;56.92;101010.69;5219547;28;21348;-74
2023/09/08 09:39:55;;;;;;;3.50;2.33;;;;;;;30.21;58.20;101016.75;5220097;28;20017;-73
2023/09/08 09:42:28;;;;;;;4.93;2.45;;;;;;;30.36;57.95;101015.91;5220157;28;20329;-73
2023/09/08 09:45:00;;;;;;;6.32;2.63;;;;;;;29.56;58.72;101021.22;5219940;28;20485;-72
2023/09/08 09:47:31;;;;;;;5.85;2.45;;;;;;;29.52;59.64;101021.69;5219936;28;20032;-73
2023/09/08 09:50:02;;;;;;;4.97;2.60;;;;;;;29.48;58.68;101012.25;5220754;28;20517;-74
2023/09/08 09:52:38;;;;;;;3.58;2.30;;;;;;;29.46;59.24;101014.25;5220010;28;20482;-73
2023/09/08 09:55:10;;;;;;;5.80;2.28;;;;;;;29.66;58.82;101015.66;5217899;28;20041;-73
2023/09/08 09:57:40;;;;;;;4.93;2.45;;;;;;;29.68;58.58;101002.88;5219940;28;20040;-73
2023/09/08 10:00:11;;;;;;;5.00;2.67;;;;;;;29.13;59.50;101007.06;5220296;28;20029;-73
2023/09/08 10:02:42;;;;;;;5.88;2.42;;;;;;;29.55;60.61;101008.75;5219490;28;20032;-73
2023/09/08 10:05:13;;;;;;;5.13;2.20;;;;;;;29.67;59.51;101007.44;5219571;28;20040;-73
2023/09/08 10:07:43;;;;;;;4.32;2.40;;;;;;;29.42;57.50;101002.94;5219382;28;20489;-73
2023/09/08 10:10:15;;;;;;;4.80;2.47;;;;;;;29.12;58.08;101005.38;5201800;28;20098;-72
2023/09/08 10:12:51;;;;;;;4.25;2.50;;;;;;;28.96;60.67;101002.63;5219519;28;20031;-73
2023/09/08 10:15:23;;;;;;;5.22;2.50;;;;;;;28.99;60.03;101005.84;5220149;28;20037;-74
2023/09/08 10:17:55;;;;;;;3.90;2.33;;;;;;;29.05;61.22;100996.28;5219248;28;20021;-73
2023/09/08 10:20:27;;;;;;;3.88;2.25;;;;;;;29.10;59.72;100996.63;5218776;28;20554;-73
2023/09/08 10:23:34;;;;;;;6.45;2.60;;;;;;;28.94;59.30;101004.63;5219804;28;20111;-73
2023/09/08 10:26:11;;;;;;;4.13;2.35;;;;;;;28.81;60.87;101007.72;5219994;28;20396;-74
2023/09/08 10:28:43;;;;;;;4.07;2.60;;;;;;;28.78;60.72;101002.69;5216314;28;20061;-73
2023/09/08 10:31:14;;;;;;;3.17;2.10;;;;;;;28.57;60.39;100987.06;5219928;28;20120;-73
2023/09/08 10:33:45;;;;;;;4.38;2.60;;;;;;;28.74;59.57;100981.63;5219535;28;20099;-74
2023/09/08 10:36:16;;;;;;;8.55;2.80;;;;;;;28.73;59.06;100993.38;5202057;28;20072;-73
2023/09/08 10:38:49;;;;;;;4.22;2.67;;;;;;;28.84;59.86;100982.31;5219156;28;20036;-73
2023/09/08 10:41:22;;;;;;;5.63;2.47;;;;;;;28.87;60.63;100984.72;5219179;28;20029;-73
2023/09/08 10:43:56;;;;;;;4.32;2.35;;;;;;;28.62;60.60;100995.50;5217649;28;20029;-74
2023/09/08 10:46:28;;;;;;;5.82;2.67;;;;;;;28.43;60.96;100987.63;5219886;28;20579;-73
2023/09/08 10:49:10;;;;;;;4.30;2.40;;;;;;;28.81;61.95;100977.25;5218185;28;20040;-73
2023/09/08 10:51:40;;;;;;;4.38;2.42;;;;;;;28.54;60.42;100973.91;5217217;28;20392;-73
2023/09/08 10:54:10;;;;;;;6.88;2.80;;;;;;;28.74;59.93;100984.31;5219623;28;20021;-74
2023/09/08 10:57:12;;;;;;;4.88;2.65;;;;;;;28.37;60.08;100980.19;5218021;28;20033;-72
2023/09/08 10:59:53;;;;;;;5.38;2.60;;;;;;;28.43;58.42;100974.19;5214945;28;20032;-73
2023/09/08 11:02:41;;;;;;;4.60;2.40;;;;;;;28.45;61.68;100975.72;5218957;28;20037;-73
2023/09/08 11:05:15;;;;;;;4.10;2.25;;;;;;;28.55;59.56;100972.91;5216814;28;20025;-74
2023/09/08 11:07:49;;;;;;;4.40;2.10;;;;;;;28.61;59.43;100975.81;5217588;28;20029;-72
2023/09/08 11:10:19;;;;;;;4.97;2.72;;;;;;;28.69;60.65;100975.88;5218937;28;20477;-73
2023/09/08 11:12:51;;;;;;;4.25;2.20;;;;;;;28.71;60.39;100979.25;5218463;28;20029;-74
2023/09/08 11:15:21;;;;;;;4.63;2.65;;;;;;;28.64;58.72;100969.28;5219264;28;20028;-73
2023/09/08 11:17:51;;;;;;;5.45;2.53;;;;;;;28.75;60.92;100970.69;5218571;28;20032;-73
2023/09/08 11:20:28;;;;;;;5.83;2.80;;;;;;;28.73;61.09;100968.31;5217674;28;20103;-73
2023/09/08 11:22:59;;;;;;;5.97;2.50;;;;;;;28.74;59.02;100963.59;5218339;28;20325;-73
2023/09/08 11:25:29;;;;;;;3.42;2.20;;;;;;;28.78;60.37;100964.13;5218380;28;20024;-72
2023/09/08 11:28:00;;;;;;;6.03;2.25;;;;;;;28.65;58.89;100966.41;5218575;28;20081;-73
2023/09/08 11:30:31;;;;;;;4.18;2.28;;;;;;;28.79;59.84;100965.81;5217110;28;20029;-73
2023/09/08 11:33:01;;;;;;;7.38;2.30;;;;;;;28.71;57.86;100960.41;5218583;28;20477;-73
2023/09/08 11:35:32;;;;;;;4.47;2.50;;;;;;;28.48;58.29;100959.25;5217461;28;20527;-74
2023/09/08 11:38:04;;;;;;;5.30;2.35;;;;;;;28.63;58.99;100962.22;5218811;28;20115;-73